createdAt,value
2018-05-12T00:00:24.459Z,93854.91
2018-05-12T00:02:52.935Z,93852.69
2018-05-12T00:05:21.340Z,93857.78
2018-05-12T00:07:49.811Z,93848.11
2018-05-12T00:10:18.296Z,93845.69
2018-05-12T00:12:46.746Z,93851.94
2018-05-12T00:15:15.164Z,93851.29
2018-05-12T00:17:43.791Z,93848.48
2018-05-12T00:20:12.213Z,93846.67
2018-05-12T00:22:40.611Z,93848.30
2018-05-12T00:25:09.007Z,93849.56
2018-05-12T00:27:37.440Z,93847.26
2018-05-12T00:30:06.198Z,93850.82
2018-05-12T00:32:35.583Z,93855.38
2018-05-12T00:35:03.992Z,93849.63
2018-05-12T00:37:32.415Z,93849.74
2018-05-12T00:40:00.831Z,93841.52
2018-05-12T00:42:29.377Z,93841.56
2018-05-12T00:44:57.784Z,93840.44
2018-05-12T00:47:26.264Z,93835.67
2018-05-12T00:49:54.707Z,93832.95
2018-05-12T00:52:23.121Z,93831.08
2018-05-12T00:54:51.560Z,93827.80
2018-05-12T00:57:19.983Z,93822.26
2018-05-12T00:59:48.396Z,93826.64
2018-05-12T01:02:16.804Z,93826.27
2018-05-12T01:04:47.335Z,93819.85
2018-05-12T01:07:15.751Z,93822.87
2018-05-12T01:09:44.183Z,93827.11
2018-05-12T01:12:12.620Z,93820.73
2018-05-12T01:14:41.055Z,93811.73
2018-05-12T01:17:11.654Z,93810.36
2018-05-12T01:19:42.176Z,93808.92
2018-05-12T01:22:10.603Z,93808.42
2018-05-12T01:24:39.024Z,93812.06
2018-05-12T01:27:07.480Z,93806.78
2018-05-12T01:29:35.898Z,93808.22
2018-05-12T01:32:04.338Z,93807.28
2018-05-12T01:34:33.147Z,93802.11
2018-05-12T01:37:03.620Z,93810.94
2018-05-12T01:39:32.077Z,93814.48
2018-05-12T01:42:00.515Z,93816.97
2018-05-12T01:44:28.935Z,93818.95
2018-05-12T01:46:57.386Z,93817.53
2018-05-12T01:49:25.834Z,93810.91
2018-05-12T01:51:54.262Z,93810.77
2018-05-12T01:54:24.743Z,93814.58
2018-05-12T01:56:53.149Z,93820.39
2018-05-12T01:59:21.577Z,93822.74
2018-05-12T02:01:49.983Z,93816.09
2018-05-12T02:04:18.388Z,93821.86
2018-05-12T02:06:46.836Z,93815.47
2018-05-12T02:09:15.258Z,93819.72
2018-05-12T02:11:43.909Z,93816.69
2018-05-12T02:14:12.316Z,93812.46
2018-05-12T02:16:40.732Z,93814.48
2018-05-12T02:19:09.151Z,93814.69
2018-05-12T02:21:37.585Z,93814.48
2018-05-12T02:24:06.966Z,93812.44
2018-05-12T02:26:35.339Z,93810.82
2018-05-12T02:29:03.755Z,93810.22
2018-05-12T02:31:32.186Z,93815.89
2018-05-12T02:34:00.598Z,93817.50
2018-05-12T02:36:28.989Z,93822.53
2018-05-12T02:38:57.376Z,93825.17
2018-05-12T02:41:25.765Z,93834.90
2018-05-12T02:43:54.199Z,93832.24
2018-05-12T02:46:22.633Z,93826.68
2018-05-12T02:48:51.103Z,93827.00
2018-05-12T02:51:19.506Z,93820.73
2018-05-12T02:53:50.479Z,93816.28
2018-05-12T02:56:20.929Z,93816.91
2018-05-12T02:58:51.483Z,93816.50
2018-05-12T03:01:19.891Z,93816.50
2018-05-12T03:03:48.295Z,93819.41
2018-05-12T03:06:16.721Z,93815.12
2018-05-12T03:08:45.133Z,93825.02
2018-05-12T03:11:13.931Z,93818.05
2018-05-12T03:13:42.376Z,93820.03
2018-05-12T03:16:10.783Z,93818.38
2018-05-12T03:18:39.210Z,93817.50
2018-05-12T03:21:08.067Z,93813.59
2018-05-12T03:23:38.063Z,93814.14
2018-05-12T03:26:06.478Z,93824.30
2018-05-12T03:28:34.937Z,93822.45
2018-05-12T03:31:03.358Z,93826.05
2018-05-12T03:33:31.771Z,93832.28
2018-05-12T03:36:00.244Z,93826.72
2018-05-12T03:38:30.667Z,93829.03
2018-05-12T03:40:59.092Z,93828.34
2018-05-12T03:43:27.535Z,93827.63
2018-05-12T03:45:56.360Z,93829.66
2018-05-12T03:48:24.786Z,93841.95
2018-05-12T03:50:55.358Z,93840.16
2018-05-12T03:53:23.731Z,93846.41
2018-05-12T03:55:52.732Z,93845.41
2018-05-12T03:58:21.144Z,93854.41
2018-05-12T04:00:49.566Z,93857.98
2018-05-12T04:03:18.268Z,93857.78
2018-05-12T04:05:52.882Z,93862.47
2018-05-12T04:08:29.509Z,93870.39
2018-05-12T04:11:03.980Z,93872.03
2018-05-12T04:13:32.430Z,93869.38
2018-05-12T04:16:00.833Z,93875.16
2018-05-12T04:18:30.092Z,93873.44
2018-05-12T04:20:58.633Z,93873.15
2018-05-12T04:23:27.010Z,93873.84
2018-05-12T04:25:55.899Z,93873.52
2018-05-12T04:28:24.302Z,93875.72
2018-05-12T04:30:52.730Z,93874.31
2018-05-12T04:33:23.259Z,93877.75
2018-05-12T04:35:51.663Z,93873.72
2018-05-12T04:38:20.061Z,93863.03
2018-05-12T04:40:48.519Z,93866.45
2018-05-12T04:43:16.952Z,93860.39
2018-05-12T04:45:47.658Z,93859.37
2018-05-12T04:48:16.413Z,93857.13
2018-05-12T04:50:44.809Z,93854.91
2018-05-12T04:53:13.217Z,93855.01
2018-05-12T04:55:43.780Z,93859.97
2018-05-12T04:58:13.943Z,93850.86
2018-05-12T05:00:42.804Z,93856.23
2018-05-12T05:03:11.244Z,93852.48
2018-05-12T05:05:39.647Z,93846.64
2018-05-12T05:08:08.167Z,93846.84
2018-05-12T05:10:36.528Z,93843.46
2018-05-12T05:13:04.983Z,93843.89
2018-05-12T05:15:33.402Z,93836.89
2018-05-12T05:18:03.927Z,93830.95
2018-05-12T05:20:32.348Z,93831.57
2018-05-12T05:23:00.769Z,93835.02
2018-05-12T05:25:29.236Z,93830.88
2018-05-12T05:27:57.691Z,93829.85
2018-05-12T05:30:26.047Z,93827.16
2018-05-12T05:32:54.487Z,93826.58
2018-05-12T05:35:22.887Z,93825.17
2018-05-12T05:37:51.650Z,93818.31
2018-05-12T05:40:20.043Z,93819.63
2018-05-12T05:42:48.478Z,93822.06
2018-05-12T05:45:16.938Z,93825.47
2018-05-12T05:47:45.327Z,93823.33
2018-05-12T05:50:14.142Z,93821.93
2018-05-12T05:52:42.555Z,93825.98
2018-05-12T05:55:10.963Z,93825.05
2018-05-12T05:57:39.417Z,93827.98
2018-05-12T06:00:07.825Z,93825.31
2018-05-12T06:02:36.299Z,93832.42
2018-05-12T06:05:04.712Z,93830.52
2018-05-12T06:07:33.131Z,93834.32
2018-05-12T06:10:02.587Z,93832.88
2018-05-12T06:12:31.083Z,93833.08
2018-05-12T06:14:59.548Z,93832.66
2018-05-12T06:17:27.967Z,93827.16
2018-05-12T06:19:56.542Z,93820.70
2018-05-12T06:22:24.932Z,93824.42
2018-05-12T06:24:53.363Z,93812.42
2018-05-12T06:27:22.944Z,93822.06
2018-05-12T06:29:51.386Z,93822.12
2018-05-12T06:32:19.816Z,93825.58
2018-05-12T06:34:49.160Z,93823.75
2018-05-12T06:37:17.636Z,93821.61
2018-05-12T06:39:46.110Z,93824.55
2018-05-12T06:42:14.894Z,93819.16
2018-05-12T06:44:43.275Z,93816.22
2018-05-12T06:47:11.984Z,93812.19
2018-05-12T06:49:40.415Z,93810.72
2018-05-12T06:52:08.828Z,93817.14
2018-05-12T06:54:38.219Z,93814.70
2018-05-12T06:57:06.643Z,93807.66
2018-05-12T06:59:35.094Z,93811.74
2018-05-12T07:02:03.903Z,93808.88
2018-05-12T07:04:32.346Z,93811.13
2018-05-12T07:07:00.833Z,93812.75
2018-05-12T07:09:29.284Z,93813.52
2018-05-12T07:11:57.702Z,93808.98
2018-05-12T07:14:26.140Z,93805.35
2018-05-12T07:16:55.563Z,93809.88
2018-05-12T07:19:24.982Z,93802.67
2018-05-12T07:21:53.360Z,93805.34
2018-05-12T07:24:21.822Z,93805.42
2018-05-12T07:26:50.272Z,93805.77
2018-05-12T07:29:18.679Z,93808.02
2018-05-12T07:31:47.056Z,93804.61
2018-05-12T07:34:15.501Z,93801.90
2018-05-12T07:36:43.896Z,93807.22
2018-05-12T07:39:12.316Z,93806.84
2018-05-12T07:41:40.771Z,93805.75
2018-05-12T07:44:09.232Z,93798.70
2018-05-12T07:46:37.707Z,93797.14
2018-05-12T07:49:07.108Z,93801.47
2018-05-12T07:51:35.638Z,93797.23
2018-05-12T07:54:04.899Z,93798.49
2018-05-12T07:56:33.291Z,93786.66
2018-05-12T07:59:01.797Z,93782.49
2018-05-12T08:01:30.208Z,93782.88
2018-05-12T08:04:00.547Z,93780.82
2018-05-12T08:06:28.923Z,93773.03
2018-05-12T08:08:57.356Z,93775.77
2018-05-12T08:11:25.812Z,93767.52
2018-05-12T08:13:54.205Z,93765.48
2018-05-12T08:16:22.614Z,93769.69
2018-05-12T08:18:51.225Z,93765.04
2018-05-12T08:21:19.667Z,93758.78
2018-05-12T08:23:48.023Z,93751.44
2018-05-12T08:26:16.735Z,93758.70
2018-05-12T08:28:45.101Z,93753.13
2018-05-12T08:31:14.525Z,93744.45
2018-05-12T08:33:43.003Z,93752.20
2018-05-12T08:36:12.223Z,93742.34
2018-05-12T08:38:41.004Z,93743.50
2018-05-12T08:41:10.327Z,93739.53
2018-05-12T08:43:38.738Z,93739.62
2018-05-12T08:46:07.213Z,93735.70
2018-05-12T08:48:35.975Z,93737.16
2018-05-12T08:51:04.460Z,93728.37
2018-05-12T08:53:32.895Z,93730.03
2018-05-12T08:56:01.692Z,93729.83
2018-05-12T08:58:30.151Z,93726.72
2018-05-12T09:00:59.885Z,93722.11
2018-05-12T09:03:28.267Z,93717.06
2018-05-12T09:05:56.723Z,93716.33
2018-05-12T09:08:25.203Z,93710.91
2018-05-12T09:10:53.596Z,93715.73
2018-05-12T09:13:22.076Z,93722.59
2018-05-12T09:15:50.498Z,93714.84
2018-05-12T09:18:18.899Z,93709.98
2018-05-12T09:20:47.354Z,93709.33
2018-05-12T09:23:15.795Z,93705.16
2018-05-12T09:25:45.158Z,93702.38
2018-05-12T09:28:13.967Z,93700.91
2018-05-12T09:30:42.323Z,93695.94
2018-05-12T09:33:10.767Z,93693.33
2018-05-12T09:35:39.746Z,93688.97
2018-05-12T09:38:08.152Z,93689.61
2018-05-12T09:40:36.596Z,93690.66
2018-05-12T09:43:05.037Z,93691.86
2018-05-12T09:45:33.508Z,93681.50
2018-05-12T09:48:01.911Z,93682.23
2018-05-12T09:50:30.418Z,93676.88
2018-05-12T09:53:00.421Z,93664.90
2018-05-12T09:55:30.381Z,93663.25
2018-05-12T09:57:58.819Z,93661.13
2018-05-12T10:00:27.280Z,93663.08
2018-05-12T10:02:57.457Z,93659.70
2018-05-12T10:05:29.801Z,93646.21
2018-05-12T10:07:58.316Z,93662.74
2018-05-12T10:10:26.714Z,93658.30
2018-05-12T10:12:55.222Z,93658.08
2018-05-12T10:15:23.731Z,93655.56
2018-05-12T10:17:53.871Z,93656.21
2018-05-12T10:20:22.295Z,93647.61
2018-05-12T10:22:50.858Z,93648.71
2018-05-12T10:25:20.830Z,93649.09
2018-05-12T10:27:49.263Z,93633.55
2018-05-12T10:30:19.604Z,93638.67
2018-05-12T10:32:48.031Z,93631.88
2018-05-12T10:35:17.900Z,93637.15
2018-05-12T10:37:46.584Z,93630.84
2018-05-12T10:40:15.010Z,93625.83
2018-05-12T10:42:43.428Z,93630.64
2018-05-12T10:45:11.864Z,93625.80
2018-05-12T10:47:43.457Z,93625.86
2018-05-12T10:50:11.912Z,93614.94
2018-05-12T10:52:41.882Z,93606.00
2018-05-12T10:55:11.796Z,93603.86
2018-05-12T10:57:41.753Z,93602.47
2018-05-12T11:00:10.146Z,93600.52
2018-05-12T11:02:40.215Z,93604.29
2018-05-12T11:05:12.177Z,93594.58
2018-05-12T11:07:40.639Z,93588.83
2018-05-12T11:10:09.092Z,93588.08
2018-05-12T11:12:38.978Z,93586.22
2018-05-12T11:15:07.421Z,93585.05
2018-05-12T11:17:37.424Z,93581.66
2018-05-12T11:20:05.848Z,93578.41
2018-05-12T11:22:34.295Z,93580.94
2018-05-12T11:25:02.764Z,93581.28
2018-05-12T11:27:31.237Z,93569.41
2018-05-12T11:29:59.693Z,93564.16
2018-05-12T11:32:28.128Z,93565.10
2018-05-12T11:34:58.669Z,93560.86
2018-05-12T11:37:27.121Z,93559.20
2018-05-12T11:39:57.253Z,93555.16
2018-05-12T11:42:27.041Z,93548.84
2018-05-12T11:44:55.508Z,93549.98
2018-05-12T11:47:24.000Z,93543.57
2018-05-12T11:49:52.415Z,93548.86
2018-05-12T11:52:22.850Z,93547.82
2018-05-12T11:54:51.302Z,93548.48
2018-05-12T11:57:23.722Z,93550.28
2018-05-12T11:59:52.179Z,93540.54
2018-05-12T12:02:20.591Z,93539.23
2018-05-12T12:04:49.036Z,93536.85
2018-05-12T12:07:17.536Z,93537.53
2018-05-12T12:09:45.960Z,93536.89
2018-05-12T12:12:14.685Z,93543.25
2018-05-12T12:14:43.116Z,93538.69
2018-05-12T12:17:13.006Z,93532.35
2018-05-12T12:19:41.447Z,93530.97
2018-05-12T12:22:09.862Z,93522.67
2018-05-12T12:24:38.329Z,93517.72
2018-05-12T12:27:08.365Z,93518.23
2018-05-12T12:29:36.787Z,93519.62
2018-05-12T12:32:06.662Z,93515.98
2018-05-12T12:34:35.103Z,93504.90
2018-05-12T12:37:03.580Z,93512.73
2018-05-12T12:39:32.003Z,93514.00
2018-05-12T12:42:00.708Z,93511.52
2018-05-12T12:44:29.116Z,93505.86
2018-05-12T12:46:57.543Z,93500.27
2018-05-12T12:49:25.988Z,93499.27
2018-05-12T12:51:54.435Z,93504.84
2018-05-12T12:54:22.864Z,93495.50
2018-05-12T12:56:51.276Z,93499.87
2018-05-12T12:59:20.089Z,93490.97
2018-05-12T13:01:48.544Z,93488.20
2018-05-12T13:04:16.982Z,93488.48
2018-05-12T13:06:45.452Z,93480.67
2018-05-12T13:09:17.578Z,93480.59
2018-05-12T13:11:46.088Z,93477.16
2018-05-12T13:14:14.498Z,93477.16
2018-05-12T13:16:43.089Z,93466.26
2018-05-12T13:19:13.058Z,93468.70
2018-05-12T13:21:43.780Z,93459.56
2018-05-12T13:24:12.207Z,93466.26
2018-05-12T13:26:40.623Z,93455.23
2018-05-12T13:29:09.059Z,93462.66
2018-05-12T13:31:39.028Z,93457.25
2018-05-12T13:34:09.184Z,93457.53
2018-05-12T13:36:37.624Z,93457.05
2018-05-12T13:39:06.047Z,93451.48
2018-05-12T13:41:34.502Z,93452.55
2018-05-12T13:44:02.924Z,93445.29
2018-05-12T13:46:31.379Z,93433.55
2018-05-12T13:48:59.831Z,93434.30
2018-05-12T13:51:28.621Z,93428.12
2018-05-12T13:53:57.047Z,93435.98
2018-05-12T13:56:25.492Z,93428.52
2018-05-12T13:58:53.967Z,93421.80
2018-05-12T14:01:22.379Z,93426.42
2018-05-12T14:03:50.813Z,93416.34
2018-05-12T14:06:19.237Z,93416.55
2018-05-12T14:08:47.646Z,93415.97
2018-05-12T14:11:16.123Z,93415.76
2018-05-12T14:13:44.619Z,93408.33
2018-05-12T14:16:13.114Z,93398.13
2018-05-12T14:18:43.022Z,93404.92
2018-05-12T14:21:13.043Z,93404.20
2018-05-12T14:23:41.836Z,93409.48
2018-05-12T14:26:10.272Z,93393.47
2018-05-12T14:28:38.682Z,93401.34
2018-05-12T14:31:07.192Z,93395.55
2018-05-12T14:33:35.604Z,93386.45
2018-05-12T14:36:08.123Z,93398.19
2018-05-12T14:38:40.194Z,93397.46
2018-05-12T14:41:08.615Z,93393.86
2018-05-12T14:43:38.632Z,93397.12
2018-05-12T14:46:07.091Z,93393.10
2018-05-12T14:48:35.551Z,93392.45
2018-05-12T14:51:03.999Z,93387.47
2018-05-12T14:53:32.408Z,93378.91
2018-05-12T14:56:01.148Z,93376.81
2018-05-12T14:58:31.659Z,93373.79
2018-05-12T15:01:00.142Z,93381.78
2018-05-12T15:03:32.371Z,93374.19
2018-05-12T15:06:00.780Z,93382.52
2018-05-12T15:08:29.201Z,93375.84
2018-05-12T15:10:57.636Z,93375.95
2018-05-12T15:13:26.201Z,93374.59
2018-05-12T15:15:56.748Z,93368.94
2018-05-12T15:18:27.156Z,93377.22
2018-05-12T15:20:55.595Z,93374.32
2018-05-12T15:23:24.012Z,93360.94
2018-05-12T15:25:52.782Z,93362.58
2018-05-12T15:28:21.247Z,93362.50
2018-05-12T15:30:52.412Z,93365.87
2018-05-12T15:33:20.854Z,93350.42
2018-05-12T15:35:51.348Z,93343.78
2018-05-12T15:38:19.730Z,93339.06
2018-05-12T15:40:48.189Z,93339.34
2018-05-12T15:43:15.709Z,93345.56
2018-05-12T15:45:43.575Z,93342.02
2018-05-12T15:48:10.929Z,93339.05
2018-05-12T15:50:38.281Z,93331.14
2018-05-12T15:53:05.716Z,93335.87
2018-05-12T15:55:33.044Z,93334.41
2018-05-12T15:58:01.828Z,93335.42
2018-05-12T16:00:29.984Z,93332.60
2018-05-12T16:02:57.363Z,93326.91
2018-05-12T16:05:24.705Z,93331.68
2018-05-12T16:07:52.048Z,93321.97
2018-05-12T16:10:19.254Z,93326.78
2018-05-12T16:12:47.643Z,93321.23
2018-05-12T16:15:14.994Z,93321.08
2018-05-12T16:17:43.385Z,93323.63
2018-05-12T16:20:11.065Z,93316.11
2018-05-12T16:22:39.507Z,93321.95
2018-05-12T16:25:06.854Z,93321.16
2018-05-12T16:27:35.244Z,93317.72
2018-05-12T16:30:03.673Z,93317.52
2018-05-12T16:32:31.097Z,93315.27
2018-05-12T16:34:59.492Z,93314.41
2018-05-12T16:37:30.332Z,93314.48
2018-05-12T16:39:58.738Z,93317.80
2018-05-12T16:42:27.172Z,93313.51
2018-05-12T16:44:55.625Z,93308.68
2018-05-12T16:47:22.981Z,93310.22
2018-05-12T16:49:51.408Z,93312.70
2018-05-12T16:52:19.933Z,93318.72
2018-05-12T16:54:48.367Z,93311.02
2018-05-12T16:57:17.506Z,93310.53
2018-05-12T16:59:45.955Z,93302.23
2018-05-12T17:02:13.322Z,93298.70
2018-05-12T17:04:43.541Z,93301.80
2018-05-12T17:07:15.592Z,93303.00
2018-05-12T17:09:44.043Z,93297.61
2018-05-12T17:12:12.556Z,93297.26
2018-05-12T17:14:41.023Z,93298.83
2018-05-12T17:17:09.450Z,93301.22
2018-05-12T17:19:38.088Z,93299.75
2018-05-12T17:22:06.503Z,93302.17
2018-05-12T17:24:34.907Z,93289.19
2018-05-12T17:27:03.367Z,93294.41
2018-05-12T17:29:31.799Z,93292.66
2018-05-12T17:32:00.251Z,93292.59
2018-05-12T17:34:28.656Z,93294.66
2018-05-12T17:36:58.192Z,93284.70
2018-05-12T17:39:26.653Z,93288.14
2018-05-12T17:41:55.087Z,93291.63
2018-05-12T17:44:24.647Z,93289.34
2018-05-12T17:46:54.299Z,93285.17
2018-05-12T17:49:22.744Z,93291.20
2018-05-12T17:51:51.186Z,93288.63
2018-05-12T17:54:19.651Z,93286.69
2018-05-12T17:56:48.181Z,93286.27
2018-05-12T17:59:18.144Z,93280.28
2018-05-12T18:01:47.982Z,93278.78
2018-05-12T18:04:16.414Z,93282.34
2018-05-12T18:06:46.427Z,93280.66
2018-05-12T18:09:15.076Z,93274.45
2018-05-12T18:11:43.450Z,93277.44
2018-05-12T18:14:11.940Z,93281.94
2018-05-12T18:16:40.352Z,93285.13
2018-05-12T18:19:08.769Z,93292.44
2018-05-12T18:21:37.212Z,93288.34
2018-05-12T18:24:07.154Z,93284.86
2018-05-12T18:26:35.632Z,93278.66
2018-05-12T18:29:06.188Z,93274.82
2018-05-12T18:31:34.610Z,93275.02
2018-05-12T18:34:03.068Z,93276.76
2018-05-12T18:36:31.863Z,93272.41
2018-05-12T18:39:00.358Z,93278.15
2018-05-12T18:41:30.835Z,93277.38
2018-05-12T18:44:00.593Z,93277.78
2018-05-12T18:46:31.239Z,93283.25
2018-05-12T18:48:59.712Z,93288.61
2018-05-12T18:51:30.236Z,93287.26
2018-05-12T18:53:58.631Z,93290.97
2018-05-12T18:56:27.052Z,93292.22
2018-05-12T18:58:55.436Z,93296.89
2018-05-12T19:01:23.804Z,93295.98
2018-05-12T19:03:53.723Z,93300.95
2018-05-12T19:06:22.156Z,93301.13
2018-05-12T19:08:50.486Z,93303.67
2018-05-12T19:11:18.915Z,93309.40
2018-05-12T19:13:47.289Z,93310.62
2018-05-12T19:16:15.641Z,93309.66
2018-05-12T19:18:44.393Z,93308.23
2018-05-12T19:21:12.776Z,93309.72
2018-05-12T19:23:41.171Z,93308.39
2018-05-12T19:26:09.591Z,93313.02
2018-05-12T19:28:38.026Z,93306.63
2018-05-12T19:31:08.955Z,93300.94
2018-05-12T19:33:37.331Z,93308.52
2018-05-12T19:36:05.719Z,93303.58
2018-05-12T19:38:34.179Z,93298.25
2018-05-12T19:41:02.548Z,93304.64
2018-05-12T19:43:30.903Z,93306.91
2018-05-12T19:46:01.665Z,93304.00
2018-05-12T19:48:30.047Z,93300.00
2018-05-12T19:50:58.423Z,93293.22
2018-05-12T19:53:26.804Z,93296.53
2018-05-12T19:55:55.163Z,93298.28
2018-05-12T19:58:23.887Z,93294.52
2018-05-12T20:00:52.295Z,93290.49
2018-05-12T20:03:20.614Z,93298.84
2018-05-12T20:05:49.311Z,93303.65
2018-05-12T20:08:17.680Z,93301.09
2018-05-12T20:10:46.052Z,93306.55
2018-05-12T20:13:14.489Z,93304.56
2018-05-12T20:15:42.887Z,93303.23
2018-05-12T20:18:12.235Z,93309.05
2018-05-12T20:20:40.620Z,93309.83
2018-05-12T20:23:08.901Z,93309.19
2018-05-12T20:25:37.365Z,93305.83
2018-05-12T20:28:05.664Z,93309.14
2018-05-12T20:30:34.428Z,93311.39
2018-05-12T20:33:02.769Z,93311.27
2018-05-12T20:35:31.184Z,93312.74
2018-05-12T20:37:59.595Z,93313.95
2018-05-12T20:40:28.037Z,93311.52
2018-05-12T20:42:56.495Z,93309.73
2018-05-12T20:45:24.972Z,93309.55
2018-05-12T20:47:55.612Z,93313.27
2018-05-12T20:50:24.001Z,93309.55
2018-05-12T20:52:52.400Z,93315.23
2018-05-12T20:55:20.767Z,93308.65
2018-05-12T20:57:51.254Z,93310.22
2018-05-12T21:00:19.606Z,93314.41
2018-05-12T21:02:48.368Z,93306.16
2018-05-12T21:05:16.741Z,93308.92
2018-05-12T21:07:45.100Z,93306.03
2018-05-12T21:10:13.517Z,93303.98
2018-05-12T21:12:41.897Z,93301.37
2018-05-12T21:15:10.640Z,93299.49
2018-05-12T21:17:39.056Z,93297.06
2018-05-12T21:20:07.435Z,93297.61
2018-05-12T21:22:36.180Z,93302.06
2018-05-12T21:25:04.636Z,93301.05
2018-05-12T21:27:33.007Z,93298.19
2018-05-12T21:30:01.477Z,93289.08
2018-05-12T21:32:29.851Z,93291.19
2018-05-12T21:34:58.709Z,93293.82
2018-05-12T21:37:27.223Z,93290.73
2018-05-12T21:39:57.105Z,93294.66
2018-05-12T21:42:27.028Z,93294.25
2018-05-12T21:44:55.411Z,93292.19
2018-05-12T21:47:25.277Z,93290.73
2018-05-12T21:49:53.689Z,93291.75
2018-05-12T21:52:22.052Z,93293.97
2018-05-12T21:54:50.439Z,93295.73
2018-05-12T21:57:20.614Z,93286.56
2018-05-12T21:59:48.961Z,93283.71
2018-05-12T22:02:17.332Z,93287.99
2018-05-12T22:04:45.715Z,93290.09
2018-05-12T22:07:14.111Z,93284.63
2018-05-12T22:09:42.584Z,93278.59
2018-05-12T22:12:10.932Z,93282.41
2018-05-12T22:14:39.311Z,93285.39
2018-05-12T22:17:07.673Z,93278.75
2018-05-12T22:19:36.145Z,93290.88
2018-05-12T22:22:04.558Z,93275.12
2018-05-12T22:24:32.934Z,93273.52
2018-05-12T22:27:01.543Z,93272.91
2018-05-12T22:29:31.464Z,93275.16
2018-05-12T22:31:59.879Z,93261.81
2018-05-12T22:34:28.575Z,93267.02
2018-05-12T22:37:01.176Z,93269.59
2018-05-12T22:39:31.001Z,93263.98
2018-05-12T22:42:00.708Z,93259.16
2018-05-12T22:44:29.065Z,93259.68
2018-05-12T22:46:57.419Z,93257.09
2018-05-12T22:49:25.839Z,93256.52
2018-05-12T22:51:55.591Z,93258.24
2018-05-12T22:54:23.931Z,93263.91
2018-05-12T22:56:52.359Z,93263.25
2018-05-12T22:59:22.705Z,93265.36
2018-05-12T23:01:51.151Z,93264.56
2018-05-12T23:04:19.576Z,93267.90
2018-05-12T23:06:48.024Z,93265.84
2018-05-12T23:09:18.037Z,93267.61
2018-05-12T23:11:49.880Z,93277.28
2018-05-12T23:14:23.766Z,93277.81
2018-05-12T23:16:52.204Z,93277.19
2018-05-12T23:19:20.684Z,93285.20
2018-05-12T23:21:49.059Z,93282.25
2018-05-12T23:24:17.532Z,93280.30
2018-05-12T23:26:45.953Z,93283.26
2018-05-12T23:29:14.452Z,93283.80
2018-05-12T23:31:42.846Z,93279.80
2018-05-12T23:34:11.285Z,93275.95
2018-05-12T23:36:39.696Z,93272.68
2018-05-12T23:39:08.103Z,93274.00
2018-05-12T23:41:36.479Z,93270.17
2018-05-12T23:44:06.804Z,93268.28
2018-05-12T23:46:35.240Z,93270.98
2018-05-12T23:49:05.694Z,93272.66
2018-05-12T23:51:37.740Z,93286.53
2018-05-12T23:54:06.479Z,93291.36
2018-05-12T23:56:34.843Z,93287.19
2018-05-12T23:59:05.367Z,93290.23
